createdAt,value
2023-10-16T00:00:42.652Z,5.77
2023-10-16T00:03:10.276Z,5.61
2023-10-16T00:05:50.749Z,5.71
2023-10-16T00:08:18.015Z,5.63
2023-10-16T00:10:58.099Z,5.65
2023-10-16T00:13:29.606Z,5.53
2023-10-16T00:15:58.772Z,5.44
2023-10-16T00:18:30.766Z,5.11
2023-10-16T00:20:57.471Z,5.05
2023-10-16T00:23:27.210Z,5.02
2023-10-16T00:28:26.020Z,4.58
2023-10-16T00:30:52.996Z,4.54
2023-10-16T00:41:18.712Z,4.52
2023-10-16T01:02:17.559Z,4.35
2023-10-16T01:04:44.656Z,4.18
2023-10-16T01:07:16.809Z,4.17
2023-10-16T01:09:44.116Z,4.07
2023-10-16T01:12:13.672Z,4.25
2023-10-16T01:14:41.416Z,4.43
2023-10-16T01:17:12.435Z,4.40
2023-10-16T01:19:42.703Z,4.42
2023-10-16T01:22:13.089Z,4.37
2023-10-16T01:24:45.572Z,4.31
2023-10-16T01:30:03.098Z,4.11
2023-10-16T01:32:29.958Z,4.08
2023-10-16T01:34:57.492Z,4.49
2023-10-16T01:37:25.135Z,4.70
2023-10-16T01:39:56.923Z,4.80
2023-10-16T01:42:25.550Z,4.71
2023-10-16T01:44:53.145Z,4.84
2023-10-16T01:47:20.116Z,4.83
2023-10-16T01:49:50.896Z,4.81
2023-10-16T01:52:18.107Z,4.58
2023-10-16T01:54:47.627Z,4.39
2023-10-16T01:57:14.992Z,4.21
2023-10-16T01:59:44.147Z,4.24
2023-10-16T02:02:12.813Z,4.07
2023-10-16T02:04:40.106Z,4.20
2023-10-16T02:07:08.335Z,4.14
2023-10-16T02:09:38.465Z,4.16
2023-10-16T02:27:32.677Z,4.58
2023-10-16T02:35:14.604Z,4.02
2023-10-16T02:37:42.351Z,3.81
2023-10-16T02:40:12.581Z,3.75
2023-10-16T02:42:42.255Z,3.71
2023-10-16T02:45:25.479Z,3.85
2023-10-16T02:47:53.645Z,3.71
2023-10-16T02:50:21.293Z,3.58
2023-10-16T02:52:51.539Z,3.71
2023-10-16T02:55:18.377Z,3.75
2023-10-16T02:57:45.171Z,3.70
2023-10-16T03:00:19.214Z,3.60
2023-10-16T03:02:49.088Z,3.65
2023-10-16T03:08:15.073Z,3.48
2023-10-16T03:10:41.746Z,3.57
2023-10-16T03:13:08.531Z,3.46
2023-10-16T03:15:47.850Z,4.01
2023-10-16T03:18:19.210Z,4.01
2023-10-16T03:20:47.584Z,3.97
2023-10-16T03:23:15.495Z,4.03
2023-10-16T03:25:43.375Z,4.31
2023-10-16T03:28:10.888Z,4.02
2023-10-16T03:30:38.453Z,3.75
2023-10-16T03:33:05.473Z,3.78
2023-10-16T03:38:12.905Z,3.71
2023-10-16T03:43:15.334Z,3.69
2023-10-16T03:48:21.465Z,3.72
2023-10-16T03:50:48.384Z,3.86
2023-10-16T03:53:15.099Z,3.79
2023-10-16T03:55:45.873Z,4.03
2023-10-16T03:58:13.621Z,3.87
2023-10-16T04:00:58.344Z,3.89
2023-10-16T04:03:28.441Z,3.74
2023-10-16T04:05:55.438Z,3.59
2023-10-16T04:08:27.022Z,3.66
2023-10-16T04:10:57.828Z,3.59
2023-10-16T04:16:06.958Z,3.40
2023-10-16T04:18:34.566Z,3.39
2023-10-16T04:21:15.652Z,3.22
2023-10-16T04:23:49.404Z,3.21
2023-10-16T04:26:29.965Z,3.18
2023-10-16T04:34:24.875Z,3.44
2023-10-16T04:37:21.440Z,3.39
2023-10-16T04:39:56.529Z,3.35
2023-10-16T04:42:45.979Z,3.66
2023-10-16T04:45:17.142Z,3.63
2023-10-16T04:47:49.317Z,3.59
2023-10-16T04:50:16.537Z,3.79
2023-10-16T04:53:01.189Z,3.72
2023-10-16T04:55:40.977Z,3.65
2023-10-16T04:58:21.122Z,3.67
2023-10-16T05:01:10.364Z,3.58
2023-10-16T05:03:43.933Z,3.48
2023-10-16T05:06:16.398Z,3.49
2023-10-16T05:08:43.992Z,3.54
2023-10-16T05:11:16.351Z,3.34
2023-10-16T05:14:17.986Z,3.44
2023-10-16T05:17:19.106Z,3.69
2023-10-16T05:22:38.759Z,3.86
2023-10-16T05:25:25.069Z,3.67
2023-10-16T05:28:10.217Z,3.71
2023-10-16T05:30:55.864Z,3.78
2023-10-16T05:33:40.946Z,3.58
2023-10-16T05:36:26.481Z,3.45
2023-10-16T05:39:11.929Z,3.21
2023-10-16T05:41:57.225Z,3.13
2023-10-16T05:44:42.344Z,3.19
2023-10-16T05:47:27.405Z,3.28
2023-10-16T05:50:12.659Z,3.53
2023-10-16T05:52:59.303Z,3.56
2023-10-16T05:55:46.154Z,3.50
2023-10-16T05:58:31.614Z,3.41
2023-10-16T06:04:16.784Z,3.18
2023-10-16T06:07:02.095Z,3.33
2023-10-16T06:09:47.567Z,3.30
2023-10-16T06:12:33.090Z,3.57
2023-10-16T06:14:59.895Z,3.56
2023-10-16T06:17:26.623Z,3.52
2023-10-16T06:19:53.425Z,3.67
2023-10-16T06:22:20.149Z,3.66
2023-10-16T06:24:49.013Z,3.72
2023-10-16T06:27:25.908Z,3.70
2023-10-16T06:29:53.204Z,3.62
2023-10-16T06:34:59.967Z,3.47
2023-10-16T06:40:06.487Z,3.76
2023-10-16T06:42:33.318Z,3.78
2023-10-16T06:45:08.611Z,3.79
2023-10-16T06:47:38.695Z,3.78
2023-10-16T06:50:27.171Z,3.69
2023-10-16T06:52:55.599Z,3.78
2023-10-16T06:55:22.798Z,3.71
2023-10-16T06:57:49.728Z,3.68
2023-10-16T07:00:33.764Z,3.63
2023-10-16T07:03:03.719Z,3.82
2023-10-16T07:08:22.143Z,4.24
2023-10-16T07:11:05.041Z,4.33
2023-10-16T07:13:40.088Z,4.56
2023-10-16T07:16:08.724Z,4.62
2023-10-16T07:18:37.028Z,4.67
2023-10-16T07:21:07.690Z,4.89
2023-10-16T07:23:38.567Z,5.05
2023-10-16T07:26:10.849Z,5.20
2023-10-16T07:31:14.314Z,5.18
2023-10-16T07:33:43.068Z,5.12
2023-10-16T07:36:13.057Z,5.23
2023-10-16T07:38:40.495Z,5.30
2023-10-16T07:41:10.949Z,5.36
2023-10-16T07:43:37.751Z,5.56
2023-10-16T07:46:12.679Z,5.57
2023-10-16T07:48:41.957Z,5.84
2023-10-16T07:53:40.798Z,6.03
2023-10-16T07:56:27.396Z,6.08
2023-10-16T07:59:11.184Z,6.20
2023-10-16T08:01:47.678Z,6.41
2023-10-16T08:04:23.824Z,6.63
2023-10-16T08:07:07.761Z,6.59
2023-10-16T08:09:35.589Z,6.74
2023-10-16T08:12:20.116Z,6.80
2023-10-16T08:14:52.595Z,7.08
2023-10-16T08:17:25.442Z,7.13
2023-10-16T08:19:52.713Z,7.21
2023-10-16T08:22:24.127Z,7.25
2023-10-16T08:25:00.208Z,7.44
2023-10-16T08:27:40.234Z,7.63
2023-10-16T08:30:34.626Z,7.81
2023-10-16T08:33:09.206Z,8.12
2023-10-16T08:35:40.003Z,8.44
2023-10-16T08:38:13.740Z,8.61
2023-10-16T08:40:45.292Z,8.66
2023-10-16T08:43:18.458Z,8.77
2023-10-16T08:45:50.080Z,9.18
2023-10-16T08:48:23.362Z,8.91
2023-10-16T08:50:58.840Z,9.15
2023-10-16T08:53:32.930Z,9.13
2023-10-16T08:56:09.082Z,9.16
2023-10-16T08:58:41.066Z,9.34
2023-10-16T09:01:09.383Z,9.53
2023-10-16T09:03:39.750Z,9.59
2023-10-16T09:06:06.686Z,9.69
2023-10-16T09:08:34.661Z,9.90
2023-10-16T09:13:41.312Z,10.22
2023-10-16T09:16:16.249Z,10.12
2023-10-16T09:18:43.606Z,10.25
2023-10-16T09:21:24.604Z,10.39
2023-10-16T09:23:59.917Z,10.64
2023-10-16T09:26:30.509Z,10.75
2023-10-16T09:29:05.583Z,11.02
2023-10-16T09:31:33.399Z,11.05
2023-10-16T09:36:37.806Z,11.40
2023-10-16T09:39:18.270Z,11.71
2023-10-16T09:41:52.713Z,11.70
2023-10-16T09:44:38.289Z,11.89
2023-10-16T09:47:25.432Z,11.95
2023-10-16T09:49:54.267Z,11.99
2023-10-16T09:52:22.085Z,12.18
2023-10-16T09:54:50.080Z,12.14
2023-10-16T09:57:24.987Z,12.37
2023-10-16T10:00:18.189Z,12.33
2023-10-16T10:02:47.322Z,12.33
2023-10-16T10:05:15.246Z,12.34
2023-10-16T10:07:50.705Z,12.49
2023-10-16T10:10:48.671Z,12.47
2023-10-16T10:13:18.328Z,12.46
2023-10-16T10:15:51.251Z,12.60
2023-10-16T10:18:34.344Z,12.53
2023-10-16T10:21:03.698Z,12.65
2023-10-16T10:23:33.852Z,13.00
2023-10-16T10:26:08.659Z,13.11
2023-10-16T10:28:39.636Z,12.99
2023-10-16T10:31:07.137Z,13.14
2023-10-16T10:33:43.936Z,13.09
2023-10-16T10:36:36.540Z,13.37
2023-10-16T10:39:29.312Z,13.67
2023-10-16T10:42:05.129Z,13.90
2023-10-16T10:44:37.109Z,13.85
2023-10-16T10:47:22.110Z,14.12
2023-10-16T10:49:52.151Z,14.18
2023-10-16T10:52:21.430Z,14.39
2023-10-16T10:54:59.722Z,14.55
2023-10-16T10:57:28.113Z,14.55
2023-10-16T11:00:04.420Z,14.81
2023-10-16T11:02:31.232Z,14.66
2023-10-16T11:05:00.926Z,15.05
2023-10-16T11:07:40.781Z,15.10
2023-10-16T11:10:08.675Z,15.19
2023-10-16T11:12:35.628Z,15.19
2023-10-16T11:15:07.421Z,15.49
2023-10-16T11:17:36.055Z,15.73
2023-10-16T11:20:28.920Z,15.61
2023-10-16T11:22:58.323Z,15.73
2023-10-16T11:25:30.503Z,15.56
2023-10-16T11:28:08.726Z,15.46
2023-10-16T11:33:17.483Z,15.51
2023-10-16T11:38:31.030Z,15.98
2023-10-16T11:41:06.268Z,16.21
2023-10-16T11:43:39.158Z,16.37
2023-10-16T11:46:21.609Z,16.43
2023-10-16T11:48:51.532Z,16.09
2023-10-16T11:51:18.515Z,15.66
2023-10-16T11:53:45.549Z,16.14
2023-10-16T11:56:14.565Z,16.38
2023-10-16T11:58:41.750Z,16.08
2023-10-16T12:03:41.015Z,16.57
2023-10-16T12:06:10.010Z,16.19
2023-10-16T12:11:09.586Z,16.20
2023-10-16T12:13:36.385Z,16.18
2023-10-16T12:16:03.189Z,16.47
2023-10-16T12:18:32.694Z,16.02
2023-10-16T12:21:09.505Z,15.97
2023-10-16T12:23:38.213Z,16.01
2023-10-16T12:26:06.286Z,16.57
2023-10-16T12:28:35.424Z,16.55
2023-10-16T12:31:04.252Z,16.35
2023-10-16T12:33:32.465Z,16.30
2023-10-16T12:36:02.397Z,16.09
2023-10-16T12:38:29.186Z,16.04
2023-10-16T12:41:00.753Z,16.17
2023-10-16T12:43:29.004Z,15.86
2023-10-16T12:48:31.531Z,15.66
2023-10-16T12:51:11.209Z,15.80
2023-10-16T12:53:40.344Z,15.56
2023-10-16T12:56:07.733Z,15.29
2023-10-16T12:58:35.404Z,15.20
2023-10-16T13:03:46.810Z,14.60
2023-10-16T13:06:13.775Z,14.94
2023-10-16T13:08:41.174Z,14.95
2023-10-16T13:11:08.797Z,14.83
2023-10-16T13:13:36.095Z,14.86
2023-10-16T13:18:44.968Z,14.90
2023-10-16T13:21:15.350Z,14.92
2023-10-16T13:23:46.735Z,14.71
2023-10-16T13:26:16.155Z,14.62
2023-10-16T13:28:44.687Z,14.41
2023-10-16T13:31:11.789Z,14.19
2023-10-16T13:33:42.962Z,14.14
2023-10-16T13:36:13.392Z,14.17
2023-10-16T13:38:40.845Z,14.29
2023-10-16T13:41:19.886Z,14.29
2023-10-16T13:43:49.489Z,14.07
2023-10-16T13:46:16.491Z,13.99
2023-10-16T13:51:27.235Z,14.13
2023-10-16T13:53:53.958Z,14.12
2023-10-16T13:56:21.171Z,14.01
2023-10-16T13:58:47.971Z,13.87
2023-10-16T14:01:15.946Z,13.92
2023-10-16T14:03:43.990Z,13.92
2023-10-16T14:06:14.205Z,13.84
2023-10-16T14:08:43.034Z,13.86
2023-10-16T14:11:15.998Z,13.90
2023-10-16T14:13:42.786Z,13.86
2023-10-16T14:16:09.608Z,13.93
2023-10-16T14:18:36.954Z,13.91
2023-10-16T14:21:10.045Z,13.95
2023-10-16T14:26:23.194Z,13.84
2023-10-16T14:28:53.928Z,13.86
2023-10-16T14:31:23.121Z,13.77
2023-10-16T14:36:31.231Z,13.76
2023-10-16T14:38:58.424Z,13.78
2023-10-16T14:41:25.241Z,13.84
2023-10-16T14:43:55.806Z,13.60
2023-10-16T14:46:24.259Z,13.61
2023-10-16T14:48:52.010Z,13.48
2023-10-16T14:51:19.716Z,13.59
2023-10-16T14:53:49.990Z,13.41
2023-10-16T14:56:20.656Z,13.43
2023-10-16T15:01:35.012Z,13.23
2023-10-16T15:04:02.960Z,13.23
2023-10-16T15:06:31.205Z,13.06
2023-10-16T15:09:00.867Z,12.91
2023-10-16T15:11:30.175Z,12.86
2023-10-16T15:13:57.270Z,12.94
2023-10-16T15:16:24.255Z,12.91
2023-10-16T15:18:51.060Z,12.94
2023-10-16T15:21:17.890Z,12.92
2023-10-16T15:23:46.858Z,12.76
2023-10-16T15:26:13.565Z,12.78
2023-10-16T15:31:14.023Z,12.72
2023-10-16T15:33:42.089Z,12.52
2023-10-16T15:36:09.285Z,12.57
2023-10-16T15:38:35.993Z,12.48
2023-10-16T15:41:02.798Z,12.46
2023-10-16T15:43:29.504Z,12.45
2023-10-16T15:48:27.529Z,12.23
2023-10-16T15:50:54.586Z,12.25
2023-10-16T15:53:22.469Z,12.16
2023-10-16T15:55:50.077Z,12.11
2023-10-16T15:58:16.913Z,12.00
2023-10-16T16:00:43.775Z,11.90
2023-10-16T16:03:10.731Z,11.90
2023-10-16T16:05:38.865Z,11.83
2023-10-16T16:08:07.682Z,11.79
2023-10-16T16:10:34.742Z,11.71
2023-10-16T16:13:02.659Z,11.66
2023-10-16T16:15:29.817Z,11.55
2023-10-16T16:18:01.888Z,11.58
2023-10-16T16:20:29.654Z,11.48
2023-10-16T16:22:58.025Z,11.52
2023-10-16T16:27:57.396Z,11.38
2023-10-16T16:30:24.289Z,11.29
2023-10-16T16:32:51.667Z,11.27
2023-10-16T16:35:19.827Z,11.20
2023-10-16T16:37:50.171Z,11.21
2023-10-16T16:40:20.276Z,11.17
2023-10-16T16:42:49.366Z,11.16
2023-10-16T16:45:22.235Z,11.13
2023-10-16T16:47:49.096Z,11.03
2023-10-16T16:50:18.952Z,11.00
2023-10-16T16:52:46.363Z,10.98
2023-10-16T16:57:45.739Z,10.76
2023-10-16T17:00:19.976Z,10.79
2023-10-16T17:02:48.764Z,10.82
2023-10-16T17:05:16.149Z,10.76
2023-10-16T17:07:43.584Z,10.80
2023-10-16T17:10:13.413Z,10.75
2023-10-16T17:12:42.176Z,10.69
2023-10-16T17:15:13.766Z,10.69
2023-10-16T17:17:42.215Z,10.46
2023-10-16T17:20:11.100Z,10.45
2023-10-16T17:22:55.993Z,10.50
2023-10-16T17:25:25.165Z,10.67
2023-10-16T17:27:53.024Z,10.37
2023-10-16T17:32:55.102Z,10.24
2023-10-16T17:35:29.553Z,10.16
2023-10-16T17:37:56.657Z,10.14
2023-10-16T17:40:23.432Z,10.26
2023-10-16T17:42:50.120Z,10.18
2023-10-16T17:47:48.730Z,10.24
2023-10-16T17:50:15.594Z,10.27
2023-10-16T17:52:43.705Z,10.10
2023-10-16T17:55:10.522Z,10.09
2023-10-16T17:57:37.778Z,10.10
2023-10-16T18:00:10.878Z,10.12
2023-10-16T18:02:38.518Z,10.08
2023-10-16T18:05:06.583Z,10.29
2023-10-16T18:07:33.382Z,10.23
2023-10-16T18:10:00.145Z,10.15
2023-10-16T18:12:26.817Z,10.22
2023-10-16T18:17:27.338Z,10.15
2023-10-16T18:19:54.146Z,10.17
2023-10-16T18:22:20.928Z,10.08
2023-10-16T18:24:47.891Z,10.05
2023-10-16T18:27:15.566Z,10.28
2023-10-16T18:29:46.561Z,10.07
2023-10-16T18:32:14.464Z,9.89
2023-10-16T18:34:42.779Z,9.85
2023-10-16T18:37:12.576Z,9.92
2023-10-16T18:39:39.627Z,9.74
2023-10-16T18:42:10.514Z,9.77
2023-10-16T18:44:38.091Z,9.67
2023-10-16T18:47:06.370Z,9.50
2023-10-16T18:49:33.309Z,9.46
2023-10-16T18:52:00.127Z,9.50
2023-10-16T18:54:27.289Z,9.50
2023-10-16T18:56:54.344Z,9.52
2023-10-16T18:59:22.855Z,9.26
2023-10-16T19:01:49.931Z,9.24
2023-10-16T19:06:49.535Z,9.28
2023-10-16T19:09:19.124Z,9.12
2023-10-16T19:11:46.429Z,8.98
2023-10-16T19:14:13.969Z,9.00
2023-10-16T19:16:42.000Z,9.00
2023-10-16T19:19:10.122Z,9.03
2023-10-16T19:21:39.308Z,8.92
2023-10-16T19:26:47.027Z,8.78
2023-10-16T19:29:14.406Z,8.78
2023-10-16T19:31:43.075Z,8.84
2023-10-16T19:34:10.169Z,8.99
2023-10-16T19:36:37.613Z,9.03
2023-10-16T19:39:06.969Z,9.07
2023-10-16T19:41:35.092Z,9.12
2023-10-16T19:44:02.200Z,9.20
2023-10-16T19:46:32.430Z,9.29
2023-10-16T19:48:59.422Z,9.26
2023-10-16T19:51:26.285Z,9.26
2023-10-16T19:53:56.860Z,9.27
2023-10-16T19:56:24.569Z,9.37
2023-10-16T19:58:54.226Z,9.31
2023-10-16T20:01:24.467Z,9.30
2023-10-16T20:03:51.567Z,9.23
2023-10-16T20:06:20.242Z,9.21
2023-10-16T20:08:47.730Z,9.24
2023-10-16T20:11:14.955Z,9.19
2023-10-16T20:13:43.178Z,9.09
2023-10-16T20:16:13.422Z,9.03
2023-10-16T20:21:13.822Z,8.87
2023-10-16T20:23:40.860Z,8.67
2023-10-16T20:26:18.456Z,8.59
2023-10-16T20:28:46.089Z,8.51
2023-10-16T20:31:14.705Z,8.36
2023-10-16T20:33:44.225Z,8.44
2023-10-16T20:36:11.384Z,8.51
2023-10-16T20:38:39.006Z,8.60
2023-10-16T20:41:06.849Z,8.54
2023-10-16T20:43:33.804Z,8.61
2023-10-16T20:46:04.378Z,8.38
2023-10-16T20:48:33.070Z,8.42
2023-10-16T20:53:32.912Z,8.21
2023-10-16T20:55:59.806Z,8.26
2023-10-16T20:58:26.695Z,8.06
2023-10-16T21:03:27.659Z,7.81
2023-10-16T21:05:54.500Z,7.66
2023-10-16T21:08:21.434Z,7.68
2023-10-16T21:10:48.246Z,7.84
2023-10-16T21:15:46.442Z,7.82
2023-10-16T21:18:13.327Z,8.52
2023-10-16T21:20:40.157Z,7.90
2023-10-16T21:23:06.896Z,7.60
2023-10-16T21:25:34.412Z,7.29
2023-10-16T21:28:02.030Z,7.03
2023-10-16T21:30:30.536Z,6.87
2023-10-16T21:32:57.882Z,6.93
2023-10-16T21:35:26.448Z,6.88
2023-10-16T21:37:53.594Z,7.03
2023-10-16T21:40:23.214Z,7.21
2023-10-16T21:42:51.406Z,7.24
2023-10-16T21:45:18.493Z,7.27
2023-10-16T21:47:46.221Z,7.21
2023-10-16T21:50:13.429Z,7.30
2023-10-16T21:52:40.306Z,7.50
2023-10-16T21:55:08.011Z,7.45
2023-10-16T21:57:35.732Z,7.48
2023-10-16T22:00:12.875Z,7.44
2023-10-16T22:02:40.301Z,7.33
2023-10-16T22:05:07.329Z,7.20
2023-10-16T22:10:14.843Z,7.12
2023-10-16T22:12:41.660Z,6.92
2023-10-16T22:15:12.183Z,6.96
2023-10-16T22:20:13.003Z,6.88
2023-10-16T22:22:39.794Z,6.85
2023-10-16T22:25:06.810Z,6.93
2023-10-16T22:27:33.944Z,6.88
2023-10-16T22:30:01.545Z,7.00
2023-10-16T22:32:28.385Z,6.92
2023-10-16T22:34:55.133Z,6.85
2023-10-16T22:37:21.799Z,6.72
2023-10-16T22:39:49.085Z,6.67
2023-10-16T22:42:17.123Z,6.78
2023-10-16T22:44:44.074Z,6.72
2023-10-16T22:47:11.291Z,6.78
2023-10-16T22:49:38.127Z,6.68
2023-10-16T22:52:05.281Z,6.62
2023-10-16T22:54:33.012Z,6.44
2023-10-16T22:56:59.941Z,6.28
2023-10-16T22:59:26.678Z,6.06
2023-10-16T23:01:53.398Z,5.95
2023-10-16T23:04:20.998Z,5.97
2023-10-16T23:06:51.618Z,5.82
2023-10-16T23:09:30.517Z,5.67
2023-10-16T23:12:09.084Z,5.71
2023-10-16T23:14:38.616Z,5.79
2023-10-16T23:19:52.236Z,5.61
2023-10-16T23:22:18.937Z,5.55
2023-10-16T23:27:23.837Z,5.44
2023-10-16T23:29:51.018Z,5.45
2023-10-16T23:32:19.197Z,5.42
2023-10-16T23:34:55.629Z,5.51
2023-10-16T23:37:22.992Z,5.42
2023-10-16T23:39:49.720Z,5.37
2023-10-16T23:42:16.616Z,5.28
2023-10-16T23:44:44.972Z,5.51
2023-10-16T23:47:14.381Z,5.63
2023-10-16T23:49:47.133Z,5.26
2023-10-16T23:52:24.096Z,5.16
2023-10-16T23:57:49.905Z,5.02
